Terminal Aerodrome Forecast
Issued by NWS Salt Lake City, UT

Home | Current Version | Previous Version | Text Only | Print | Product List | Glossary On
Versions: 1 2 3 4 5 6 7 8 9 10 11 12 13 14 15 16 17 18 19 20 21 22 23 24 25 26 27 28 29 30 31 32 33 34 35 36 37 38 39
788
FTUS45 KSLC 011737
TAFCDC
TAF
KCDC 011737Z 0118/0218 06008KT P6SM VCSH SCT080
     FM011900 34011KT P6SM -SHRA SCT040 BKN050
     FM020300 06009KT P6SM VCSH SCT060 BKN100
     FM021000 19007KT P6SM SCT050 BKN120=

USA.gov is the U.S. government's official web portal to all federal, state and local government web resources and services.